Accueil
METAR-TAF:

METAR-TAF

Aéroports :

Aéroport de Kangiqsualujjuaq

Kangiqsualujjuaq, Québec, Canada

latitude: 58-43N, longitude: 065-59W, altitude: 60 m

Observation

Le bulletin a été fait il y a 10 heures et 22 minutes, à 19:00 UTC
Vent 8 kt de ouest
Température 2°C
Humidité 80%
Pression 1019 hPa
Visibilité: 24.1 km
Quelques nuages à une hauteur de 400 ft
Quelques nuages à une hauteur de 3000 ft

METAR: CYLU 201900Z 27008KT 15SM FEW004 FEW030 02/M01 A3009 RMK ST1SF1 LAST OBS/NEXT 211200UTC SLP195

Heure: 01:22 (05:22 UTC)


TAF: absent

Observations et prévisions météorologiques de plus de 4000 aéroports (messages METAR et TAF).

Les stations disponibles sont représentées par des disques jaunes et rouges sur la carte.

Passer la souris dessus pour voir le nom de la station.

Cliquer dessus pour voir les observations et prévisions météorologiques.

Pour changer de carte: cliquez sur les boutons verts avec une croix noire pour zoomer, sur le bouton vert avec un tiret pour effectuer un zoom arrière, ou sur les flèches vertes pour les cartes adjacentes.


METAR-TAF: